sensor_id;sensor_type;location;lat;lon;timestamp;P1;durP1;ratioP1;P2;durP2;ratioP2
61358;SDS011;47228;46.762;23.598;2024-01-11T00:01:18;50.20;;;29.00;;
61358;SDS011;47228;46.762;23.598;2024-01-11T00:03:46;52.30;;;29.10;;
61358;SDS011;47228;46.762;23.598;2024-01-11T00:06:14;51.40;;;28.80;;
61358;SDS011;47228;46.762;23.598;2024-01-11T00:08:43;50.20;;;29.70;;
61358;SDS011;47228;46.762;23.598;2024-01-11T00:11:11;54.10;;;29.90;;
61358;SDS011;47228;46.762;23.598;2024-01-11T00:13:42;51.30;;;28.80;;
61358;SDS011;47228;46.762;23.598;2024-01-11T00:16:11;48.20;;;28.70;;
61358;SDS011;47228;46.762;23.598;2024-01-11T00:18:39;49.10;;;29.60;;
61358;SDS011;47228;46.762;23.598;2024-01-11T00:21:07;49.50;;;28.20;;
61358;SDS011;47228;46.762;23.598;2024-01-11T00:23:35;48.80;;;29.00;;
61358;SDS011;47228;46.762;23.598;2024-01-11T00:26:04;47.30;;;28.30;;
61358;SDS011;47228;46.762;23.598;2024-01-11T00:28:32;51.20;;;29.90;;
61358;SDS011;47228;46.762;23.598;2024-01-11T00:31:00;50.30;;;28.90;;
61358;SDS011;47228;46.762;23.598;2024-01-11T00:33:28;50.60;;;29.90;;
61358;SDS011;47228;46.762;23.598;2024-01-11T00:35:57;48.10;;;29.00;;
61358;SDS011;47228;46.762;23.598;2024-01-11T00:38:26;50.90;;;29.10;;
61358;SDS011;47228;46.762;23.598;2024-01-11T00:40:54;47.50;;;26.70;;
61358;SDS011;47228;46.762;23.598;2024-01-11T00:43:22;48.60;;;28.40;;
61358;SDS011;47228;46.762;23.598;2024-01-11T00:45:50;46.40;;;27.60;;
61358;SDS011;47228;46.762;23.598;2024-01-11T00:48:18;48.90;;;27.80;;
61358;SDS011;47228;46.762;23.598;2024-01-11T00:50:47;43.40;;;26.60;;
61358;SDS011;47228;46.762;23.598;2024-01-11T00:53:15;48.40;;;26.10;;
61358;SDS011;47228;46.762;23.598;2024-01-11T00:55:43;44.80;;;26.80;;
61358;SDS011;47228;46.762;23.598;2024-01-11T00:58:11;47.40;;;26.50;;
61358;SDS011;47228;46.762;23.598;2024-01-11T01:00:39;49.10;;;26.30;;
61358;SDS011;47228;46.762;23.598;2024-01-11T01:03:08;48.50;;;27.70;;
61358;SDS011;47228;46.762;23.598;2024-01-11T01:05:36;49.90;;;28.20;;
61358;SDS011;47228;46.762;23.598;2024-01-11T01:08:04;49.10;;;28.70;;
61358;SDS011;47228;46.762;23.598;2024-01-11T01:10:32;51.90;;;29.20;;
61358;SDS011;47228;46.762;23.598;2024-01-11T01:13:01;49.40;;;29.00;;
61358;SDS011;47228;46.762;23.598;2024-01-11T01:15:29;48.20;;;27.50;;
61358;SDS011;47228;46.762;23.598;2024-01-11T01:17:57;49.90;;;28.70;;
61358;SDS011;47228;46.762;23.598;2024-01-11T01:20:26;50.80;;;28.90;;
61358;SDS011;47228;46.762;23.598;2024-01-11T01:22:55;49.60;;;28.00;;
61358;SDS011;47228;46.762;23.598;2024-01-11T01:25:23;50.40;;;28.70;;
61358;SDS011;47228;46.762;23.598;2024-01-11T01:27:51;50.50;;;27.80;;
61358;SDS011;47228;46.762;23.598;2024-01-11T01:30:20;47.70;;;27.80;;
61358;SDS011;47228;46.762;23.598;2024-01-11T01:32:48;47.80;;;26.50;;
61358;SDS011;47228;46.762;23.598;2024-01-11T01:35:17;48.90;;;26.80;;
61358;SDS011;47228;46.762;23.598;2024-01-11T01:37:45;44.60;;;26.00;;
61358;SDS011;47228;46.762;23.598;2024-01-11T01:40:13;41.00;;;24.20;;
61358;SDS011;47228;46.762;23.598;2024-01-11T01:42:45;42.60;;;24.90;;
61358;SDS011;47228;46.762;23.598;2024-01-11T01:45:14;44.90;;;26.10;;
61358;SDS011;47228;46.762;23.598;2024-01-11T01:47:43;44.70;;;25.10;;
61358;SDS011;47228;46.762;23.598;2024-01-11T01:50:12;46.90;;;26.40;;
61358;SDS011;47228;46.762;23.598;2024-01-11T01:52:41;48.10;;;25.60;;
61358;SDS011;47228;46.762;23.598;2024-01-11T01:55:12;48.30;;;26.10;;
61358;SDS011;47228;46.762;23.598;2024-01-11T01:57:42;45.40;;;26.40;;
61358;SDS011;47228;46.762;23.598;2024-01-11T02:00:11;47.00;;;24.80;;
61358;SDS011;47228;46.762;23.598;2024-01-11T02:02:44;45.20;;;25.40;;
61358;SDS011;47228;46.762;23.598;2024-01-11T02:05:14;46.80;;;25.20;;
61358;SDS011;47228;46.762;23.598;2024-01-11T02:07:44;49.10;;;25.80;;
61358;SDS011;47228;46.762;23.598;2024-01-11T02:10:12;43.30;;;24.20;;
61358;SDS011;47228;46.762;23.598;2024-01-11T02:12:40;40.80;;;23.90;;
61358;SDS011;47228;46.762;23.598;2024-01-11T02:15:09;36.60;;;22.80;;
61358;SDS011;47228;46.762;23.598;2024-01-11T02:17:39;35.60;;;22.20;;
61358;SDS011;47228;46.762;23.598;2024-01-11T02:20:10;36.50;;;22.00;;
61358;SDS011;47228;46.762;23.598;2024-01-11T02:22:39;33.20;;;20.40;;
61358;SDS011;47228;46.762;23.598;2024-01-11T02:25:10;34.00;;;20.50;;
61358;SDS011;47228;46.762;23.598;2024-01-11T02:27:45;32.80;;;20.50;;
61358;SDS011;47228;46.762;23.598;2024-01-11T02:30:15;34.20;;;19.00;;
61358;SDS011;47228;46.762;23.598;2024-01-11T02:32:44;33.40;;;19.40;;
61358;SDS011;47228;46.762;23.598;2024-01-11T02:35:17;32.90;;;19.60;;
61358;SDS011;47228;46.762;23.598;2024-01-11T02:37:46;31.20;;;19.50;;
61358;SDS011;47228;46.762;23.598;2024-01-11T02:40:16;31.80;;;20.90;;
61358;SDS011;47228;46.762;23.598;2024-01-11T02:42:44;34.60;;;21.20;;
61358;SDS011;47228;46.762;23.598;2024-01-11T02:45:12;33.10;;;19.90;;
61358;SDS011;47228;46.762;23.598;2024-01-11T02:47:40;35.30;;;20.20;;
61358;SDS011;47228;46.762;23.598;2024-01-11T02:50:09;33.30;;;19.50;;
61358;SDS011;47228;46.762;23.598;2024-01-11T02:52:40;32.40;;;18.60;;
61358;SDS011;47228;46.762;23.598;2024-01-11T02:55:08;33.80;;;18.40;;
61358;SDS011;47228;46.762;23.598;2024-01-11T02:57:37;32.50;;;19.30;;
61358;SDS011;47228;46.762;23.598;2024-01-11T03:00:05;32.20;;;18.50;;
61358;SDS011;47228;46.762;23.598;2024-01-11T03:02:34;31.60;;;18.20;;
61358;SDS011;47228;46.762;23.598;2024-01-11T03:05:02;31.70;;;18.20;;
61358;SDS011;47228;46.762;23.598;2024-01-11T03:07:31;30.00;;;17.50;;
61358;SDS011;47228;46.762;23.598;2024-01-11T03:10:00;31.40;;;17.50;;
61358;SDS011;47228;46.762;23.598;2024-01-11T03:12:28;30.60;;;19.30;;
61358;SDS011;47228;46.762;23.598;2024-01-11T03:14:56;31.20;;;18.30;;
61358;SDS011;47228;46.762;23.598;2024-01-11T03:17:24;34.10;;;18.30;;
61358;SDS011;47228;46.762;23.598;2024-01-11T03:19:52;32.50;;;18.00;;
61358;SDS011;47228;46.762;23.598;2024-01-11T03:22:20;29.10;;;18.60;;
61358;SDS011;47228;46.762;23.598;2024-01-11T03:24:48;31.40;;;17.90;;
61358;SDS011;47228;46.762;23.598;2024-01-11T03:27:17;29.90;;;18.10;;
61358;SDS011;47228;46.762;23.598;2024-01-11T03:29:46;29.50;;;18.80;;
61358;SDS011;47228;46.762;23.598;2024-01-11T03:32:14;27.20;;;17.10;;
61358;SDS011;47228;46.762;23.598;2024-01-11T03:34:42;31.50;;;18.10;;
61358;SDS011;47228;46.762;23.598;2024-01-11T03:37:10;28.50;;;17.40;;
61358;SDS011;47228;46.762;23.598;2024-01-11T03:39:39;26.10;;;16.80;;
61358;SDS011;47228;46.762;23.598;2024-01-11T03:42:07;29.40;;;19.00;;
61358;SDS011;47228;46.762;23.598;2024-01-11T03:44:36;30.80;;;19.30;;
61358;SDS011;47228;46.762;23.598;2024-01-11T03:47:05;34.10;;;19.60;;
61358;SDS011;47228;46.762;23.598;2024-01-11T03:49:33;33.70;;;20.20;;
61358;SDS011;47228;46.762;23.598;2024-01-11T03:52:01;32.70;;;20.10;;
61358;SDS011;47228;46.762;23.598;2024-01-11T03:54:29;33.60;;;19.60;;
61358;SDS011;47228;46.762;23.598;2024-01-11T03:56:57;32.40;;;19.10;;
61358;SDS011;47228;46.762;23.598;2024-01-11T03:59:26;29.10;;;18.50;;
61358;SDS011;47228;46.762;23.598;2024-01-11T04:01:54;32.00;;;19.50;;
61358;SDS011;47228;46.762;23.598;2024-01-11T04:04:23;32.20;;;18.70;;
61358;SDS011;47228;46.762;23.598;2024-01-11T04:06:51;31.30;;;19.60;;
61358;SDS011;47228;46.762;23.598;2024-01-11T04:09:20;33.10;;;18.60;;
61358;SDS011;47228;46.762;23.598;2024-01-11T04:11:48;32.30;;;19.40;;
61358;SDS011;47228;46.762;23.598;2024-01-11T04:14:16;32.70;;;18.30;;
61358;SDS011;47228;46.762;23.598;2024-01-11T04:16:44;29.30;;;17.80;;
61358;SDS011;47228;46.762;23.598;2024-01-11T04:19:13;29.30;;;18.00;;
61358;SDS011;47228;46.762;23.598;2024-01-11T04:21:41;31.10;;;18.60;;
61358;SDS011;47228;46.762;23.598;2024-01-11T04:24:09;31.90;;;18.40;;
61358;SDS011;47228;46.762;23.598;2024-01-11T04:26:37;30.20;;;19.20;;
61358;SDS011;47228;46.762;23.598;2024-01-11T04:29:05;31.90;;;18.40;;
61358;SDS011;47228;46.762;23.598;2024-01-11T04:31:34;33.20;;;19.30;;
61358;SDS011;47228;46.762;23.598;2024-01-11T04:34:02;36.10;;;21.20;;
61358;SDS011;47228;46.762;23.598;2024-01-11T04:36:30;34.80;;;19.50;;
61358;SDS011;47228;46.762;23.598;2024-01-11T04:38:58;32.40;;;19.20;;
61358;SDS011;47228;46.762;23.598;2024-01-11T04:41:26;31.70;;;18.70;;
61358;SDS011;47228;46.762;23.598;2024-01-11T04:43:54;34.60;;;19.50;;
61358;SDS011;47228;46.762;23.598;2024-01-11T04:46:23;32.40;;;20.70;;
61358;SDS011;47228;46.762;23.598;2024-01-11T04:48:51;31.90;;;19.00;;
61358;SDS011;47228;46.762;23.598;2024-01-11T04:51:21;32.00;;;19.30;;
61358;SDS011;47228;46.762;23.598;2024-01-11T04:53:50;31.80;;;19.10;;
61358;SDS011;47228;46.762;23.598;2024-01-11T04:56:18;32.00;;;17.90;;
61358;SDS011;47228;46.762;23.598;2024-01-11T04:58:46;32.00;;;18.40;;
61358;SDS011;47228;46.762;23.598;2024-01-11T05:01:15;30.90;;;18.70;;
61358;SDS011;47228;46.762;23.598;2024-01-11T05:03:45;33.40;;;19.00;;
61358;SDS011;47228;46.762;23.598;2024-01-11T05:06:15;35.60;;;20.30;;
61358;SDS011;47228;46.762;23.598;2024-01-11T05:08:47;30.70;;;19.10;;
61358;SDS011;47228;46.762;23.598;2024-01-11T05:11:18;34.90;;;20.00;;
61358;SDS011;47228;46.762;23.598;2024-01-11T05:13:47;33.40;;;19.60;;
61358;SDS011;47228;46.762;23.598;2024-01-11T05:18:45;33.80;;;21.10;;
61358;SDS011;47228;46.762;23.598;2024-01-11T05:21:13;33.90;;;19.60;;
61358;SDS011;47228;46.762;23.598;2024-01-11T05:23:41;31.90;;;19.00;;
61358;SDS011;47228;46.762;23.598;2024-01-11T05:26:10;30.20;;;18.40;;
61358;SDS011;47228;46.762;23.598;2024-01-11T05:28:39;31.70;;;19.50;;
61358;SDS011;47228;46.762;23.598;2024-01-11T05:31:11;33.30;;;19.40;;
61358;SDS011;47228;46.762;23.598;2024-01-11T05:33:41;32.00;;;19.70;;
61358;SDS011;47228;46.762;23.598;2024-01-11T05:36:10;34.40;;;20.10;;
61358;SDS011;47228;46.762;23.598;2024-01-11T05:38:38;37.00;;;20.10;;
61358;SDS011;47228;46.762;23.598;2024-01-11T05:41:08;32.00;;;19.70;;
61358;SDS011;47228;46.762;23.598;2024-01-11T05:43:43;34.00;;;20.00;;
61358;SDS011;47228;46.762;23.598;2024-01-11T05:46:12;33.70;;;19.80;;
61358;SDS011;47228;46.762;23.598;2024-01-11T05:48:40;36.60;;;21.60;;
61358;SDS011;47228;46.762;23.598;2024-01-11T05:51:09;35.30;;;22.60;;
61358;SDS011;47228;46.762;23.598;2024-01-11T05:53:37;34.10;;;19.90;;
61358;SDS011;47228;46.762;23.598;2024-01-11T05:56:09;30.80;;;17.00;;
61358;SDS011;47228;46.762;23.598;2024-01-11T05:58:39;29.90;;;17.50;;
61358;SDS011;47228;46.762;23.598;2024-01-11T06:01:07;31.60;;;18.00;;
61358;SDS011;47228;46.762;23.598;2024-01-11T06:03:36;31.10;;;19.50;;
61358;SDS011;47228;46.762;23.598;2024-01-11T06:06:06;31.80;;;18.40;;
61358;SDS011;47228;46.762;23.598;2024-01-11T06:08:36;28.50;;;17.30;;
61358;SDS011;47228;46.762;23.598;2024-01-11T06:11:05;32.20;;;17.40;;
61358;SDS011;47228;46.762;23.598;2024-01-11T06:13:34;32.20;;;18.90;;
61358;SDS011;47228;46.762;23.598;2024-01-11T06:16:02;31.60;;;19.00;;
61358;SDS011;47228;46.762;23.598;2024-01-11T06:18:31;33.10;;;18.10;;
61358;SDS011;47228;46.762;23.598;2024-01-11T06:20:59;32.20;;;19.10;;
61358;SDS011;47228;46.762;23.598;2024-01-11T06:23:27;32.70;;;18.50;;
61358;SDS011;47228;46.762;23.598;2024-01-11T06:25:55;36.30;;;18.70;;
61358;SDS011;47228;46.762;23.598;2024-01-11T06:28:24;35.00;;;18.70;;
61358;SDS011;47228;46.762;23.598;2024-01-11T06:30:53;36.10;;;19.70;;
61358;SDS011;47228;46.762;23.598;2024-01-11T06:33:21;40.30;;;19.80;;
61358;SDS011;47228;46.762;23.598;2024-01-11T06:35:50;35.80;;;20.00;;
61358;SDS011;47228;46.762;23.598;2024-01-11T06:38:18;37.10;;;20.00;;
61358;SDS011;47228;46.762;23.598;2024-01-11T06:40:46;36.30;;;19.80;;
61358;SDS011;47228;46.762;23.598;2024-01-11T06:43:15;34.10;;;19.20;;
61358;SDS011;47228;46.762;23.598;2024-01-11T06:45:44;34.90;;;19.20;;
61358;SDS011;47228;46.762;23.598;2024-01-11T06:48:13;35.40;;;19.70;;
61358;SDS011;47228;46.762;23.598;2024-01-11T06:50:41;37.00;;;20.10;;
61358;SDS011;47228;46.762;23.598;2024-01-11T06:53:09;33.20;;;19.40;;
61358;SDS011;47228;46.762;23.598;2024-01-11T06:55:38;33.10;;;18.80;;
61358;SDS011;47228;46.762;23.598;2024-01-11T06:58:09;34.70;;;19.70;;
61358;SDS011;47228;46.762;23.598;2024-01-11T07:00:37;37.00;;;19.90;;
61358;SDS011;47228;46.762;23.598;2024-01-11T07:03:11;34.50;;;19.90;;
61358;SDS011;47228;46.762;23.598;2024-01-11T07:05:40;39.40;;;20.10;;
61358;SDS011;47228;46.762;23.598;2024-01-11T07:08:09;33.00;;;18.90;;
61358;SDS011;47228;46.762;23.598;2024-01-11T07:10:38;36.00;;;19.90;;
61358;SDS011;47228;46.762;23.598;2024-01-11T07:13:06;37.60;;;19.30;;
61358;SDS011;47228;46.762;23.598;2024-01-11T07:15:34;33.90;;;20.00;;
61358;SDS011;47228;46.762;23.598;2024-01-11T07:18:03;43.80;;;20.80;;
61358;SDS011;47228;46.762;23.598;2024-01-11T07:20:32;41.70;;;23.20;;
61358;SDS011;47228;46.762;23.598;2024-01-11T07:23:01;36.80;;;21.00;;
61358;SDS011;47228;46.762;23.598;2024-01-11T07:25:30;36.20;;;21.20;;
61358;SDS011;47228;46.762;23.598;2024-01-11T07:27:58;39.70;;;20.70;;
61358;SDS011;47228;46.762;23.598;2024-01-11T07:30:26;37.20;;;21.30;;
61358;SDS011;47228;46.762;23.598;2024-01-11T07:32:54;38.80;;;21.20;;
61358;SDS011;47228;46.762;23.598;2024-01-11T07:35:23;34.50;;;20.60;;
61358;SDS011;47228;46.762;23.598;2024-01-11T07:37:51;39.60;;;22.40;;
61358;SDS011;47228;46.762;23.598;2024-01-11T07:40:20;34.10;;;20.40;;
61358;SDS011;47228;46.762;23.598;2024-01-11T07:42:48;37.70;;;21.00;;
61358;SDS011;47228;46.762;23.598;2024-01-11T07:45:17;35.40;;;21.70;;
61358;SDS011;47228;46.762;23.598;2024-01-11T07:47:46;39.90;;;20.90;;
61358;SDS011;47228;46.762;23.598;2024-01-11T07:50:15;35.90;;;20.50;;
61358;SDS011;47228;46.762;23.598;2024-01-11T07:52:43;37.20;;;21.40;;
61358;SDS011;47228;46.762;23.598;2024-01-11T07:55:11;37.60;;;21.60;;
61358;SDS011;47228;46.762;23.598;2024-01-11T07:57:40;39.80;;;21.40;;
61358;SDS011;47228;46.762;23.598;2024-01-11T08:00:09;36.40;;;21.60;;
61358;SDS011;47228;46.762;23.598;2024-01-11T08:02:37;36.50;;;20.50;;
61358;SDS011;47228;46.762;23.598;2024-01-11T08:05:06;38.50;;;21.20;;
61358;SDS011;47228;46.762;23.598;2024-01-11T08:07:35;36.00;;;20.60;;
61358;SDS011;47228;46.762;23.598;2024-01-11T08:10:03;36.50;;;20.70;;
61358;SDS011;47228;46.762;23.598;2024-01-11T08:12:32;36.80;;;21.40;;
61358;SDS011;47228;46.762;23.598;2024-01-11T08:15:02;39.00;;;21.20;;
61358;SDS011;47228;46.762;23.598;2024-01-11T08:17:31;38.90;;;21.40;;
61358;SDS011;47228;46.762;23.598;2024-01-11T08:19:59;37.00;;;20.00;;
61358;SDS011;47228;46.762;23.598;2024-01-11T08:22:28;41.60;;;21.10;;
61358;SDS011;47228;46.762;23.598;2024-01-11T08:25:02;33.20;;;19.30;;
61358;SDS011;47228;46.762;23.598;2024-01-11T08:27:33;33.50;;;19.30;;
61358;SDS011;47228;46.762;23.598;2024-01-11T08:30:01;36.40;;;20.40;;
61358;SDS011;47228;46.762;23.598;2024-01-11T08:32:30;36.10;;;19.60;;
61358;SDS011;47228;46.762;23.598;2024-01-11T08:34:59;39.30;;;20.20;;
61358;SDS011;47228;46.762;23.598;2024-01-11T08:37:28;34.30;;;19.60;;
61358;SDS011;47228;46.762;23.598;2024-01-11T08:39:56;39.10;;;20.70;;
61358;SDS011;47228;46.762;23.598;2024-01-11T08:42:24;35.30;;;20.30;;
61358;SDS011;47228;46.762;23.598;2024-01-11T08:44:52;36.50;;;19.30;;
61358;SDS011;47228;46.762;23.598;2024-01-11T08:47:20;37.60;;;20.00;;
61358;SDS011;47228;46.762;23.598;2024-01-11T08:49:49;40.30;;;20.30;;
61358;SDS011;47228;46.762;23.598;2024-01-11T08:52:17;34.30;;;18.80;;
61358;SDS011;47228;46.762;23.598;2024-01-11T08:54:46;29.80;;;17.50;;
61358;SDS011;47228;46.762;23.598;2024-01-11T08:57:14;29.00;;;18.00;;
61358;SDS011;47228;46.762;23.598;2024-01-11T08:59:42;36.80;;;18.30;;
61358;SDS011;47228;46.762;23.598;2024-01-11T09:02:11;33.50;;;18.20;;
61358;SDS011;47228;46.762;23.598;2024-01-11T09:04:45;31.60;;;17.50;;
61358;SDS011;47228;46.762;23.598;2024-01-11T09:07:15;31.50;;;18.50;;
61358;SDS011;47228;46.762;23.598;2024-01-11T09:09:43;34.70;;;18.10;;
61358;SDS011;47228;46.762;23.598;2024-01-11T09:12:23;35.70;;;19.50;;
61358;SDS011;47228;46.762;23.598;2024-01-11T09:14:51;35.80;;;18.60;;
61358;SDS011;47228;46.762;23.598;2024-01-11T09:17:20;37.00;;;17.40;;
61358;SDS011;47228;46.762;23.598;2024-01-11T09:19:49;29.30;;;17.80;;
61358;SDS011;47228;46.762;23.598;2024-01-11T09:22:18;30.50;;;16.90;;
61358;SDS011;47228;46.762;23.598;2024-01-11T09:24:47;31.30;;;17.90;;
61358;SDS011;47228;46.762;23.598;2024-01-11T09:27:15;34.00;;;18.70;;
61358;SDS011;47228;46.762;23.598;2024-01-11T09:29:43;32.20;;;18.90;;
61358;SDS011;47228;46.762;23.598;2024-01-11T09:32:12;29.70;;;18.00;;
61358;SDS011;47228;46.762;23.598;2024-01-11T09:34:41;29.40;;;17.60;;
61358;SDS011;47228;46.762;23.598;2024-01-11T09:37:09;32.10;;;18.70;;
61358;SDS011;47228;46.762;23.598;2024-01-11T09:39:37;37.70;;;20.50;;
61358;SDS011;47228;46.762;23.598;2024-01-11T09:42:07;35.70;;;19.60;;
61358;SDS011;47228;46.762;23.598;2024-01-11T09:44:40;34.00;;;19.10;;
61358;SDS011;47228;46.762;23.598;2024-01-11T09:47:11;32.80;;;19.40;;
61358;SDS011;47228;46.762;23.598;2024-01-11T09:49:44;33.70;;;20.80;;
61358;SDS011;47228;46.762;23.598;2024-01-11T09:52:13;42.20;;;23.10;;
61358;SDS011;47228;46.762;23.598;2024-01-11T09:54:44;40.20;;;24.40;;
61358;SDS011;47228;46.762;23.598;2024-01-11T09:57:13;45.60;;;26.50;;
61358;SDS011;47228;46.762;23.598;2024-01-11T09:59:49;48.50;;;26.70;;
61358;SDS011;47228;46.762;23.598;2024-01-11T10:02:19;47.90;;;26.30;;
61358;SDS011;47228;46.762;23.598;2024-01-11T10:04:49;39.40;;;25.00;;
61358;SDS011;47228;46.762;23.598;2024-01-11T10:07:21;41.70;;;23.30;;
61358;SDS011;47228;46.762;23.598;2024-01-11T10:09:50;40.10;;;24.10;;
61358;SDS011;47228;46.762;23.598;2024-01-11T10:12:19;36.30;;;21.60;;
61358;SDS011;47228;46.762;23.598;2024-01-11T10:14:51;40.80;;;22.10;;
61358;SDS011;47228;46.762;23.598;2024-01-11T10:17:22;40.20;;;23.00;;
61358;SDS011;47228;46.762;23.598;2024-01-11T10:19:52;36.00;;;22.90;;
61358;SDS011;47228;46.762;23.598;2024-01-11T10:22:22;38.40;;;23.00;;
61358;SDS011;47228;46.762;23.598;2024-01-11T10:25:07;35.30;;;21.60;;
61358;SDS011;47228;46.762;23.598;2024-01-11T10:27:40;34.80;;;21.40;;
61358;SDS011;47228;46.762;23.598;2024-01-11T10:30:14;40.30;;;23.50;;
61358;SDS011;47228;46.762;23.598;2024-01-11T10:33:03;33.20;;;20.30;;
61358;SDS011;47228;46.762;23.598;2024-01-11T10:35:33;32.60;;;20.00;;
61358;SDS011;47228;46.762;23.598;2024-01-11T10:38:05;32.90;;;20.30;;
61358;SDS011;47228;46.762;23.598;2024-01-11T10:40:38;37.00;;;20.40;;
61358;SDS011;47228;46.762;23.598;2024-01-11T10:43:06;34.80;;;20.40;;
61358;SDS011;47228;46.762;23.598;2024-01-11T10:45:39;39.30;;;22.50;;
61358;SDS011;47228;46.762;23.598;2024-01-11T10:48:11;41.30;;;23.10;;
61358;SDS011;47228;46.762;23.598;2024-01-11T10:50:42;38.40;;;24.10;;
61358;SDS011;47228;46.762;23.598;2024-01-11T10:56:03;33.80;;;21.40;;
61358;SDS011;47228;46.762;23.598;2024-01-11T10:58:34;43.00;;;27.40;;
61358;SDS011;47228;46.762;23.598;2024-01-11T11:01:03;42.20;;;26.50;;
61358;SDS011;47228;46.762;23.598;2024-01-11T11:03:34;41.80;;;26.30;;
61358;SDS011;47228;46.762;23.598;2024-01-11T11:06:04;42.00;;;25.10;;
61358;SDS011;47228;46.762;23.598;2024-01-11T11:08:34;44.10;;;24.80;;
61358;SDS011;47228;46.762;23.598;2024-01-11T11:11:02;38.90;;;23.00;;
61358;SDS011;47228;46.762;23.598;2024-01-11T11:13:35;33.60;;;22.00;;
61358;SDS011;47228;46.762;23.598;2024-01-11T11:16:04;33.80;;;22.00;;
61358;SDS011;47228;46.762;23.598;2024-01-11T11:18:33;35.10;;;23.30;;
61358;SDS011;47228;46.762;23.598;2024-01-11T11:21:09;33.00;;;20.70;;
61358;SDS011;47228;46.762;23.598;2024-01-11T11:23:39;35.80;;;21.20;;
61358;SDS011;47228;46.762;23.598;2024-01-11T11:26:08;32.00;;;18.40;;
61358;SDS011;47228;46.762;23.598;2024-01-11T11:28:43;27.40;;;17.90;;
61358;SDS011;47228;46.762;23.598;2024-01-11T11:31:11;29.20;;;16.80;;
61358;SDS011;47228;46.762;23.598;2024-01-11T11:33:40;31.20;;;18.10;;
61358;SDS011;47228;46.762;23.598;2024-01-11T11:36:12;28.50;;;17.10;;
61358;SDS011;47228;46.762;23.598;2024-01-11T11:38:41;27.00;;;17.10;;
61358;SDS011;47228;46.762;23.598;2024-01-11T11:41:10;25.40;;;16.30;;
61358;SDS011;47228;46.762;23.598;2024-01-11T11:43:39;27.70;;;17.60;;
61358;SDS011;47228;46.762;23.598;2024-01-11T11:46:08;28.80;;;17.00;;
61358;SDS011;47228;46.762;23.598;2024-01-11T11:53:43;27.50;;;17.40;;
61358;SDS011;47228;46.762;23.598;2024-01-11T11:56:15;27.80;;;16.70;;
61358;SDS011;47228;46.762;23.598;2024-01-11T11:58:46;28.10;;;17.10;;
61358;SDS011;47228;46.762;23.598;2024-01-11T12:01:15;26.00;;;17.10;;
61358;SDS011;47228;46.762;23.598;2024-01-11T12:03:47;25.40;;;16.40;;
61358;SDS011;47228;46.762;23.598;2024-01-11T12:06:19;28.10;;;16.70;;
61358;SDS011;47228;46.762;23.598;2024-01-11T12:08:52;28.50;;;16.00;;
61358;SDS011;47228;46.762;23.598;2024-01-11T12:11:26;29.20;;;18.10;;
61358;SDS011;47228;46.762;23.598;2024-01-11T12:13:55;25.50;;;16.20;;
61358;SDS011;47228;46.762;23.598;2024-01-11T12:16:26;23.90;;;15.90;;
61358;SDS011;47228;46.762;23.598;2024-01-11T12:18:56;28.80;;;16.70;;
61358;SDS011;47228;46.762;23.598;2024-01-11T12:21:25;26.30;;;15.80;;
61358;SDS011;47228;46.762;23.598;2024-01-11T12:23:56;29.30;;;15.90;;
61358;SDS011;47228;46.762;23.598;2024-01-11T12:26:25;27.10;;;15.80;;
61358;SDS011;47228;46.762;23.598;2024-01-11T12:28:57;25.30;;;16.00;;
61358;SDS011;47228;46.762;23.598;2024-01-11T12:31:27;24.70;;;15.70;;
61358;SDS011;47228;46.762;23.598;2024-01-11T12:33:56;24.40;;;15.50;;
61358;SDS011;47228;46.762;23.598;2024-01-11T12:36:25;26.20;;;15.50;;
61358;SDS011;47228;46.762;23.598;2024-01-11T12:38:53;26.20;;;16.10;;
61358;SDS011;47228;46.762;23.598;2024-01-11T12:41:22;27.70;;;15.30;;
61358;SDS011;47228;46.762;23.598;2024-01-11T12:43:54;24.20;;;15.40;;
61358;SDS011;47228;46.762;23.598;2024-01-11T12:46:22;23.50;;;15.20;;
61358;SDS011;47228;46.762;23.598;2024-01-11T12:48:51;28.70;;;16.60;;
61358;SDS011;47228;46.762;23.598;2024-01-11T12:51:19;27.40;;;17.10;;
61358;SDS011;47228;46.762;23.598;2024-01-11T12:53:53;24.70;;;15.90;;
61358;SDS011;47228;46.762;23.598;2024-01-11T12:56:32;24.50;;;15.20;;
61358;SDS011;47228;46.762;23.598;2024-01-11T12:59:08;26.00;;;15.60;;
61358;SDS011;47228;46.762;23.598;2024-01-11T13:01:41;27.00;;;16.60;;
61358;SDS011;47228;46.762;23.598;2024-01-11T13:04:09;25.50;;;16.70;;
61358;SDS011;47228;46.762;23.598;2024-01-11T13:06:41;26.20;;;16.40;;
61358;SDS011;47228;46.762;23.598;2024-01-11T13:09:09;24.00;;;15.60;;
61358;SDS011;47228;46.762;23.598;2024-01-11T13:11:38;25.80;;;15.20;;
61358;SDS011;47228;46.762;23.598;2024-01-11T13:14:06;27.10;;;16.20;;
61358;SDS011;47228;46.762;23.598;2024-01-11T13:16:39;25.10;;;15.50;;
61358;SDS011;47228;46.762;23.598;2024-01-11T13:19:07;29.80;;;16.30;;
61358;SDS011;47228;46.762;23.598;2024-01-11T13:21:53;26.60;;;17.10;;
61358;SDS011;47228;46.762;23.598;2024-01-11T13:24:21;25.40;;;16.80;;
61358;SDS011;47228;46.762;23.598;2024-01-11T13:26:49;27.30;;;17.40;;
61358;SDS011;47228;46.762;23.598;2024-01-11T13:29:18;27.30;;;16.10;;
61358;SDS011;47228;46.762;23.598;2024-01-11T13:31:46;26.40;;;16.50;;
61358;SDS011;47228;46.762;23.598;2024-01-11T13:34:14;27.60;;;16.80;;
61358;SDS011;47228;46.762;23.598;2024-01-11T13:36:42;27.00;;;16.50;;
61358;SDS011;47228;46.762;23.598;2024-01-11T13:39:10;27.30;;;16.20;;
61358;SDS011;47228;46.762;23.598;2024-01-11T13:41:39;23.90;;;15.70;;
61358;SDS011;47228;46.762;23.598;2024-01-11T13:44:08;23.90;;;15.90;;
61358;SDS011;47228;46.762;23.598;2024-01-11T13:46:37;25.60;;;16.70;;
61358;SDS011;47228;46.762;23.598;2024-01-11T13:49:08;24.00;;;15.60;;
61358;SDS011;47228;46.762;23.598;2024-01-11T13:51:37;24.90;;;15.90;;
61358;SDS011;47228;46.762;23.598;2024-01-11T13:54:20;25.10;;;16.40;;
61358;SDS011;47228;46.762;23.598;2024-01-11T13:56:52;29.40;;;16.10;;
61358;SDS011;47228;46.762;23.598;2024-01-11T13:59:20;26.10;;;16.60;;
61358;SDS011;47228;46.762;23.598;2024-01-11T14:01:49;25.10;;;16.00;;
61358;SDS011;47228;46.762;23.598;2024-01-11T14:04:18;27.60;;;16.10;;
61358;SDS011;47228;46.762;23.598;2024-01-11T14:07:18;26.80;;;15.20;;
61358;SDS011;47228;46.762;23.598;2024-01-11T14:09:46;26.90;;;16.60;;
61358;SDS011;47228;46.762;23.598;2024-01-11T14:12:15;26.20;;;16.00;;
61358;SDS011;47228;46.762;23.598;2024-01-11T14:14:43;26.60;;;17.50;;
61358;SDS011;47228;46.762;23.598;2024-01-11T14:17:12;28.50;;;17.50;;
61358;SDS011;47228;46.762;23.598;2024-01-11T14:19:40;28.40;;;17.80;;
61358;SDS011;47228;46.762;23.598;2024-01-11T14:22:08;29.00;;;18.20;;
61358;SDS011;47228;46.762;23.598;2024-01-11T14:24:37;30.60;;;16.80;;
61358;SDS011;47228;46.762;23.598;2024-01-11T14:27:05;32.30;;;18.40;;
61358;SDS011;47228;46.762;23.598;2024-01-11T14:29:33;29.90;;;17.60;;
61358;SDS011;47228;46.762;23.598;2024-01-11T14:32:02;29.90;;;18.10;;